map of NZWD home
Great Circle Mapper logo
NZWD - Airport
Location
City:  McMurdo Station, Ross Island, Antarctica
Name:Williams Field
ICAO:NZWD

Details
Type:Airport (Aerodrome, Airfield)
Latitude:77°52'02"S (-77.867357)
Longitude:167°03'24"E (167.056572)
Datum:WGS 1984
Elevation:68 ft (21 m)
Variation:141.71°E (WMM2015 magnetic declination)
-0.20° annual change
Runways:2
Longest:10000 × 220 ft (3048 × 67 m)

Time
Time Zone:UTC+12 (DST+13)
Local Time:

Weather
METAR:NZWD 080055Z 04007KT 9999 FEW080 BKN100 M08/M14 A2906 RMK SLP841 SN DSNT GRID NE-E GRID21007KT SDF/HDG

Related Locations
Nearby:
Farthest:ENAS: 12079 mi / 19440 km
Ny-Ålesund [Ny-Ålesund Hamnerabben (Broggerhalvoya)], 21, NO

Find:

   beyond  
but within

Other Information
Maps:
NOTAMs:
Links:
Sources:

  

Sectional Chart

Flight Planning
at skyvector.com

Satellite Image

Google Maps Satellite view

 

Copyright © 2004-2016 Karl L. Swartz. All rights reserved.
The Great Circle Mapper name and logo are trademarks of the Great Circle Mapper.
All other trademarks mentioned herein belong to their respective owners.
Please see credits for attibutions and further copyright information.

  Follow gcmap on Facebook Follow gcmap on Twitter Follow gcmap on Google+ GCmap on LinkedIn

hCard Microformat

Geo Microformat